sensor_id;sensor_type;location;lat;lon;timestamp;temperature;humidity
7576;DHT22;3829;50.798;4.358;2023-11-22T00:01:53;6.90;99.90
7576;DHT22;3829;50.798;4.358;2023-11-22T00:04:19;6.80;99.90
7576;DHT22;3829;50.798;4.358;2023-11-22T00:06:48;6.80;99.90
7576;DHT22;3829;50.798;4.358;2023-11-22T00:09:13;6.90;99.90
7576;DHT22;3829;50.798;4.358;2023-11-22T00:11:40;6.80;99.90
7576;DHT22;3829;50.798;4.358;2023-11-22T00:14:05;6.70;99.90
7576;DHT22;3829;50.798;4.358;2023-11-22T00:16:31;6.70;99.90
7576;DHT22;3829;50.798;4.358;2023-11-22T00:18:57;6.70;99.90
7576;DHT22;3829;50.798;4.358;2023-11-22T00:21:23;6.70;99.90
7576;DHT22;3829;50.798;4.358;2023-11-22T00:23:48;6.80;99.90
7576;DHT22;3829;50.798;4.358;2023-11-22T00:26:14;6.70;99.90
7576;DHT22;3829;50.798;4.358;2023-11-22T00:28:40;6.80;99.90
7576;DHT22;3829;50.798;4.358;2023-11-22T00:31:06;6.70;99.90
7576;DHT22;3829;50.798;4.358;2023-11-22T00:33:32;6.80;99.90
7576;DHT22;3829;50.798;4.358;2023-11-22T00:35:57;6.80;99.90
7576;DHT22;3829;50.798;4.358;2023-11-22T00:38:24;6.80;99.90
7576;DHT22;3829;50.798;4.358;2023-11-22T00:40:49;6.90;99.90
7576;DHT22;3829;50.798;4.358;2023-11-22T00:43:16;6.80;99.90
7576;DHT22;3829;50.798;4.358;2023-11-22T00:45:42;6.90;99.90
7576;DHT22;3829;50.798;4.358;2023-11-22T00:48:07;6.80;99.90
7576;DHT22;3829;50.798;4.358;2023-11-22T00:50:34;6.70;99.90
7576;DHT22;3829;50.798;4.358;2023-11-22T00:53:00;6.80;99.90
7576;DHT22;3829;50.798;4.358;2023-11-22T00:55:25;6.80;99.90
7576;DHT22;3829;50.798;4.358;2023-11-22T00:57:52;6.70;99.90
7576;DHT22;3829;50.798;4.358;2023-11-22T01:00:17;6.80;99.90
7576;DHT22;3829;50.798;4.358;2023-11-22T01:02:43;6.80;99.90
7576;DHT22;3829;50.798;4.358;2023-11-22T01:05:09;6.80;99.90
7576;DHT22;3829;50.798;4.358;2023-11-22T01:07:37;6.70;99.90
7576;DHT22;3829;50.798;4.358;2023-11-22T01:10:03;6.80;99.90
7576;DHT22;3829;50.798;4.358;2023-11-22T01:12:29;6.80;99.90
7576;DHT22;3829;50.798;4.358;2023-11-22T01:14:54;6.70;99.90
7576;DHT22;3829;50.798;4.358;2023-11-22T01:17:20;6.60;99.90
7576;DHT22;3829;50.798;4.358;2023-11-22T01:19:45;6.70;99.90
7576;DHT22;3829;50.798;4.358;2023-11-22T01:22:11;6.70;99.90
7576;DHT22;3829;50.798;4.358;2023-11-22T01:24:36;6.60;99.90
7576;DHT22;3829;50.798;4.358;2023-11-22T01:27:03;6.60;99.90
7576;DHT22;3829;50.798;4.358;2023-11-22T01:29:29;6.50;99.90
7576;DHT22;3829;50.798;4.358;2023-11-22T01:31:55;6.60;99.90
7576;DHT22;3829;50.798;4.358;2023-11-22T01:34:21;6.70;99.90
7576;DHT22;3829;50.798;4.358;2023-11-22T01:36:49;6.70;99.90
7576;DHT22;3829;50.798;4.358;2023-11-22T01:39:15;6.70;99.90
7576;DHT22;3829;50.798;4.358;2023-11-22T01:41:44;6.80;99.90
7576;DHT22;3829;50.798;4.358;2023-11-22T01:44:09;6.70;99.90
7576;DHT22;3829;50.798;4.358;2023-11-22T01:46:35;6.80;99.90
7576;DHT22;3829;50.798;4.358;2023-11-22T01:49:01;6.80;99.90
7576;DHT22;3829;50.798;4.358;2023-11-22T01:51:26;6.80;99.90
7576;DHT22;3829;50.798;4.358;2023-11-22T01:53:55;6.70;99.90
7576;DHT22;3829;50.798;4.358;2023-11-22T01:56:23;6.70;99.90
7576;DHT22;3829;50.798;4.358;2023-11-22T01:58:51;6.70;99.90
7576;DHT22;3829;50.798;4.358;2023-11-22T02:01:21;6.60;99.90
7576;DHT22;3829;50.798;4.358;2023-11-22T02:03:47;6.50;99.90
7576;DHT22;3829;50.798;4.358;2023-11-22T02:06:22;6.40;99.90
7576;DHT22;3829;50.798;4.358;2023-11-22T02:08:48;6.40;99.90
7576;DHT22;3829;50.798;4.358;2023-11-22T02:11:17;6.40;99.90
7576;DHT22;3829;50.798;4.358;2023-11-22T02:13:48;6.30;99.90
7576;DHT22;3829;50.798;4.358;2023-11-22T02:16:16;6.30;99.90
7576;DHT22;3829;50.798;4.358;2023-11-22T02:18:44;6.30;99.90
7576;DHT22;3829;50.798;4.358;2023-11-22T02:21:09;6.30;99.90
7576;DHT22;3829;50.798;4.358;2023-11-22T02:23:36;6.20;99.90
7576;DHT22;3829;50.798;4.358;2023-11-22T02:26:02;6.20;99.90
7576;DHT22;3829;50.798;4.358;2023-11-22T02:28:28;6.20;99.90
7576;DHT22;3829;50.798;4.358;2023-11-22T02:30:53;6.20;99.90
7576;DHT22;3829;50.798;4.358;2023-11-22T02:33:20;6.10;99.90
7576;DHT22;3829;50.798;4.358;2023-11-22T02:35:45;6.20;99.90
7576;DHT22;3829;50.798;4.358;2023-11-22T02:38:11;6.20;99.90
7576;DHT22;3829;50.798;4.358;2023-11-22T02:40:37;6.10;99.90
7576;DHT22;3829;50.798;4.358;2023-11-22T02:43:02;6.10;99.90
7576;DHT22;3829;50.798;4.358;2023-11-22T02:45:33;6.00;99.90
7576;DHT22;3829;50.798;4.358;2023-11-22T02:47:58;6.10;99.90
7576;DHT22;3829;50.798;4.358;2023-11-22T02:50:27;6.10;99.90
7576;DHT22;3829;50.798;4.358;2023-11-22T02:52:53;6.10;99.90
7576;DHT22;3829;50.798;4.358;2023-11-22T02:55:18;6.20;99.90
7576;DHT22;3829;50.798;4.358;2023-11-22T02:57:45;6.10;99.90
7576;DHT22;3829;50.798;4.358;2023-11-22T03:00:11;6.20;99.90
7576;DHT22;3829;50.798;4.358;2023-11-22T03:02:39;6.20;99.90
7576;DHT22;3829;50.798;4.358;2023-11-22T03:05:08;6.40;99.90
7576;DHT22;3829;50.798;4.358;2023-11-22T03:07:35;6.40;99.90
7576;DHT22;3829;50.798;4.358;2023-11-22T03:10:02;6.30;99.90
7576;DHT22;3829;50.798;4.358;2023-11-22T03:12:27;6.20;99.90
7576;DHT22;3829;50.798;4.358;2023-11-22T03:14:53;6.40;99.90
7576;DHT22;3829;50.798;4.358;2023-11-22T03:17:24;6.30;99.90
7576;DHT22;3829;50.798;4.358;2023-11-22T03:19:49;6.20;99.90
7576;DHT22;3829;50.798;4.358;2023-11-22T03:22:15;6.20;99.90
7576;DHT22;3829;50.798;4.358;2023-11-22T03:24:41;6.10;99.90
7576;DHT22;3829;50.798;4.358;2023-11-22T03:27:06;6.10;99.90
7576;DHT22;3829;50.798;4.358;2023-11-22T03:29:32;6.00;99.90
7576;DHT22;3829;50.798;4.358;2023-11-22T03:31:59;6.20;99.90
7576;DHT22;3829;50.798;4.358;2023-11-22T03:34:24;6.20;99.90
7576;DHT22;3829;50.798;4.358;2023-11-22T03:36:50;6.20;99.90
7576;DHT22;3829;50.798;4.358;2023-11-22T03:39:16;6.10;99.90
7576;DHT22;3829;50.798;4.358;2023-11-22T03:41:42;6.20;99.90
7576;DHT22;3829;50.798;4.358;2023-11-22T03:44:08;6.20;99.90
7576;DHT22;3829;50.798;4.358;2023-11-22T03:46:35;6.40;99.90
7576;DHT22;3829;50.798;4.358;2023-11-22T03:49:05;6.50;99.90
7576;DHT22;3829;50.798;4.358;2023-11-22T03:51:32;6.40;99.90
7576;DHT22;3829;50.798;4.358;2023-11-22T03:53:58;6.40;99.90
7576;DHT22;3829;50.798;4.358;2023-11-22T03:56:24;6.40;99.90
7576;DHT22;3829;50.798;4.358;2023-11-22T03:58:50;6.40;99.90
7576;DHT22;3829;50.798;4.358;2023-11-22T04:01:15;6.50;99.90
7576;DHT22;3829;50.798;4.358;2023-11-22T04:03:44;6.50;99.90
7576;DHT22;3829;50.798;4.358;2023-11-22T04:06:09;6.40;99.90
7576;DHT22;3829;50.798;4.358;2023-11-22T04:08:35;6.30;99.90
7576;DHT22;3829;50.798;4.358;2023-11-22T04:11:01;6.30;99.90
7576;DHT22;3829;50.798;4.358;2023-11-22T04:13:27;6.20;99.90
7576;DHT22;3829;50.798;4.358;2023-11-22T04:15:53;6.20;99.90
7576;DHT22;3829;50.798;4.358;2023-11-22T04:18:18;6.00;99.90
7576;DHT22;3829;50.798;4.358;2023-11-22T04:20:44;5.80;99.90
7576;DHT22;3829;50.798;4.358;2023-11-22T04:23:11;5.70;99.90
7576;DHT22;3829;50.798;4.358;2023-11-22T04:25:37;5.60;99.90
7576;DHT22;3829;50.798;4.358;2023-11-22T04:28:03;5.50;99.90
7576;DHT22;3829;50.798;4.358;2023-11-22T04:30:28;5.60;99.90
7576;DHT22;3829;50.798;4.358;2023-11-22T04:32:54;5.60;99.90
7576;DHT22;3829;50.798;4.358;2023-11-22T04:35:20;5.70;99.90
7576;DHT22;3829;50.798;4.358;2023-11-22T04:37:45;5.70;99.90
7576;DHT22;3829;50.798;4.358;2023-11-22T04:40:13;5.80;99.90
7576;DHT22;3829;50.798;4.358;2023-11-22T04:42:40;5.70;99.90
7576;DHT22;3829;50.798;4.358;2023-11-22T04:45:06;5.80;99.90
7576;DHT22;3829;50.798;4.358;2023-11-22T04:47:32;5.80;99.90
7576;DHT22;3829;50.798;4.358;2023-11-22T04:49:57;5.80;99.90
7576;DHT22;3829;50.798;4.358;2023-11-22T04:52:23;5.90;99.90
7576;DHT22;3829;50.798;4.358;2023-11-22T04:54:48;6.00;99.90
7576;DHT22;3829;50.798;4.358;2023-11-22T04:57:14;6.20;99.90
7576;DHT22;3829;50.798;4.358;2023-11-22T04:59:40;6.10;99.90
7576;DHT22;3829;50.798;4.358;2023-11-22T05:02:06;6.20;99.90
7576;DHT22;3829;50.798;4.358;2023-11-22T05:04:32;6.10;99.90
7576;DHT22;3829;50.798;4.358;2023-11-22T05:06:58;6.10;99.90
7576;DHT22;3829;50.798;4.358;2023-11-22T05:09:24;6.10;99.90
7576;DHT22;3829;50.798;4.358;2023-11-22T05:11:49;6.10;99.90
7576;DHT22;3829;50.798;4.358;2023-11-22T05:14:15;6.10;99.90
7576;DHT22;3829;50.798;4.358;2023-11-22T05:16:40;6.10;99.90
7576;DHT22;3829;50.798;4.358;2023-11-22T05:19:06;6.10;99.90
7576;DHT22;3829;50.798;4.358;2023-11-22T05:21:32;6.20;99.90
7576;DHT22;3829;50.798;4.358;2023-11-22T05:23:58;6.30;99.90
7576;DHT22;3829;50.798;4.358;2023-11-22T05:26:24;6.30;99.90
7576;DHT22;3829;50.798;4.358;2023-11-22T05:28:50;6.30;99.90
7576;DHT22;3829;50.798;4.358;2023-11-22T05:31:16;6.30;99.90
7576;DHT22;3829;50.798;4.358;2023-11-22T05:33:41;6.40;99.90
7576;DHT22;3829;50.798;4.358;2023-11-22T05:36:08;6.30;99.90
7576;DHT22;3829;50.798;4.358;2023-11-22T05:38:34;6.20;99.90
7576;DHT22;3829;50.798;4.358;2023-11-22T05:41:00;6.30;99.90
7576;DHT22;3829;50.798;4.358;2023-11-22T05:43:26;6.20;99.90
7576;DHT22;3829;50.798;4.358;2023-11-22T05:45:53;6.20;99.90
7576;DHT22;3829;50.798;4.358;2023-11-22T05:48:18;6.30;99.90
7576;DHT22;3829;50.798;4.358;2023-11-22T05:50:45;6.30;99.90
7576;DHT22;3829;50.798;4.358;2023-11-22T05:53:11;6.30;99.90
7576;DHT22;3829;50.798;4.358;2023-11-22T05:55:36;6.40;99.90
7576;DHT22;3829;50.798;4.358;2023-11-22T05:58:03;6.30;99.90
7576;DHT22;3829;50.798;4.358;2023-11-22T06:00:29;6.30;99.90
7576;DHT22;3829;50.798;4.358;2023-11-22T06:02:55;6.30;99.90
7576;DHT22;3829;50.798;4.358;2023-11-22T06:05:24;6.30;99.90
7576;DHT22;3829;50.798;4.358;2023-11-22T06:07:50;6.30;99.90
7576;DHT22;3829;50.798;4.358;2023-11-22T06:10:16;6.30;99.90
7576;DHT22;3829;50.798;4.358;2023-11-22T06:12:42;6.40;99.90
7576;DHT22;3829;50.798;4.358;2023-11-22T06:15:09;6.30;99.90
7576;DHT22;3829;50.798;4.358;2023-11-22T06:17:35;6.30;99.90
7576;DHT22;3829;50.798;4.358;2023-11-22T06:20:00;6.40;99.90
7576;DHT22;3829;50.798;4.358;2023-11-22T06:22:26;6.30;99.90
7576;DHT22;3829;50.798;4.358;2023-11-22T06:24:51;6.30;99.90
7576;DHT22;3829;50.798;4.358;2023-11-22T06:27:18;6.20;99.90
7576;DHT22;3829;50.798;4.358;2023-11-22T06:29:43;6.30;99.90
7576;DHT22;3829;50.798;4.358;2023-11-22T06:32:09;6.20;99.90
7576;DHT22;3829;50.798;4.358;2023-11-22T06:34:35;6.20;99.90
7576;DHT22;3829;50.798;4.358;2023-11-22T06:37:02;6.20;99.90
7576;DHT22;3829;50.798;4.358;2023-11-22T06:39:28;6.40;99.90
7576;DHT22;3829;50.798;4.358;2023-11-22T06:41:53;6.40;99.90
7576;DHT22;3829;50.798;4.358;2023-11-22T06:44:19;6.40;99.90
7576;DHT22;3829;50.798;4.358;2023-11-22T06:46:44;6.30;99.90
7576;DHT22;3829;50.798;4.358;2023-11-22T06:49:10;6.40;99.90
7576;DHT22;3829;50.798;4.358;2023-11-22T06:51:36;6.40;99.90
7576;DHT22;3829;50.798;4.358;2023-11-22T06:54:02;6.40;99.90
7576;DHT22;3829;50.798;4.358;2023-11-22T06:56:29;6.40;99.90
7576;DHT22;3829;50.798;4.358;2023-11-22T06:58:54;6.40;99.90
7576;DHT22;3829;50.798;4.358;2023-11-22T07:01:23;6.40;99.90
7576;DHT22;3829;50.798;4.358;2023-11-22T07:03:51;6.40;99.90
7576;DHT22;3829;50.798;4.358;2023-11-22T07:06:18;6.40;99.90
7576;DHT22;3829;50.798;4.358;2023-11-22T07:08:44;6.30;99.90
7576;DHT22;3829;50.798;4.358;2023-11-22T07:11:11;6.30;99.90
7576;DHT22;3829;50.798;4.358;2023-11-22T07:13:36;6.30;99.90
7576;DHT22;3829;50.798;4.358;2023-11-22T07:16:05;6.30;99.90
7576;DHT22;3829;50.798;4.358;2023-11-22T07:18:32;6.30;99.90
7576;DHT22;3829;50.798;4.358;2023-11-22T07:20:59;6.40;99.90
7576;DHT22;3829;50.798;4.358;2023-11-22T07:23:25;6.50;99.90
7576;DHT22;3829;50.798;4.358;2023-11-22T07:25:54;6.70;99.90
7576;DHT22;3829;50.798;4.358;2023-11-22T07:28:20;6.70;99.90
7576;DHT22;3829;50.798;4.358;2023-11-22T07:30:46;6.70;99.90
7576;DHT22;3829;50.798;4.358;2023-11-22T07:33:14;6.70;99.90
7576;DHT22;3829;50.798;4.358;2023-11-22T07:35:40;6.60;99.90
7576;DHT22;3829;50.798;4.358;2023-11-22T07:38:06;6.60;99.90
7576;DHT22;3829;50.798;4.358;2023-11-22T07:40:36;6.50;99.90
7576;DHT22;3829;50.798;4.358;2023-11-22T07:43:02;6.60;99.90
7576;DHT22;3829;50.798;4.358;2023-11-22T07:45:30;6.60;99.90
7576;DHT22;3829;50.798;4.358;2023-11-22T07:47:57;6.70;99.90
7576;DHT22;3829;50.798;4.358;2023-11-22T07:50:25;6.90;99.90
7576;DHT22;3829;50.798;4.358;2023-11-22T07:52:51;6.90;99.90
7576;DHT22;3829;50.798;4.358;2023-11-22T07:55:17;6.80;99.90
7576;DHT22;3829;50.798;4.358;2023-11-22T07:57:44;6.50;99.90
7576;DHT22;3829;50.798;4.358;2023-11-22T08:00:11;6.50;99.90
7576;DHT22;3829;50.798;4.358;2023-11-22T08:02:37;6.40;99.90
7576;DHT22;3829;50.798;4.358;2023-11-22T08:05:05;6.50;99.90
7576;DHT22;3829;50.798;4.358;2023-11-22T08:07:35;6.60;99.90
7576;DHT22;3829;50.798;4.358;2023-11-22T08:10:04;6.70;99.90
7576;DHT22;3829;50.798;4.358;2023-11-22T08:12:35;6.70;99.90
7576;DHT22;3829;50.798;4.358;2023-11-22T08:15:03;6.80;99.90
7576;DHT22;3829;50.798;4.358;2023-11-22T08:17:29;6.90;99.90
7576;DHT22;3829;50.798;4.358;2023-11-22T08:19:58;6.90;99.90
7576;DHT22;3829;50.798;4.358;2023-11-22T08:22:25;6.80;99.90
7576;DHT22;3829;50.798;4.358;2023-11-22T08:24:54;6.80;99.90
7576;DHT22;3829;50.798;4.358;2023-11-22T08:27:21;6.80;99.90
7576;DHT22;3829;50.798;4.358;2023-11-22T08:29:46;6.90;99.90
7576;DHT22;3829;50.798;4.358;2023-11-22T08:32:13;7.00;99.90
7576;DHT22;3829;50.798;4.358;2023-11-22T08:34:39;7.00;99.90
7576;DHT22;3829;50.798;4.358;2023-11-22T08:37:04;7.00;99.90
7576;DHT22;3829;50.798;4.358;2023-11-22T08:39:30;7.00;99.90
7576;DHT22;3829;50.798;4.358;2023-11-22T08:41:55;7.20;99.90
7576;DHT22;3829;50.798;4.358;2023-11-22T08:44:21;7.50;99.90
7576;DHT22;3829;50.798;4.358;2023-11-22T08:46:48;7.60;99.90
7576;DHT22;3829;50.798;4.358;2023-11-22T08:49:14;7.60;99.90
7576;DHT22;3829;50.798;4.358;2023-11-22T08:51:41;7.60;99.90
7576;DHT22;3829;50.798;4.358;2023-11-22T08:54:08;7.40;99.90
7576;DHT22;3829;50.798;4.358;2023-11-22T08:56:33;7.20;99.90
7576;DHT22;3829;50.798;4.358;2023-11-22T08:59:00;7.30;99.90
7576;DHT22;3829;50.798;4.358;2023-11-22T09:01:26;7.20;99.90
7576;DHT22;3829;50.798;4.358;2023-11-22T09:03:51;7.20;99.90
7576;DHT22;3829;50.798;4.358;2023-11-22T09:06:17;7.20;99.90
7576;DHT22;3829;50.798;4.358;2023-11-22T09:08:44;7.30;99.90
7576;DHT22;3829;50.798;4.358;2023-11-22T09:11:11;7.40;99.90
7576;DHT22;3829;50.798;4.358;2023-11-22T09:13:37;7.50;99.90
7576;DHT22;3829;50.798;4.358;2023-11-22T09:16:03;7.50;99.90
7576;DHT22;3829;50.798;4.358;2023-11-22T09:18:31;7.60;99.90
7576;DHT22;3829;50.798;4.358;2023-11-22T09:20:56;7.70;99.90
7576;DHT22;3829;50.798;4.358;2023-11-22T09:23:22;7.80;99.90
7576;DHT22;3829;50.798;4.358;2023-11-22T09:25:50;7.80;99.90
7576;DHT22;3829;50.798;4.358;2023-11-22T09:28:16;7.90;99.90
7576;DHT22;3829;50.798;4.358;2023-11-22T09:30:42;8.10;99.90
7576;DHT22;3829;50.798;4.358;2023-11-22T09:33:11;8.20;99.90
7576;DHT22;3829;50.798;4.358;2023-11-22T09:35:40;8.10;99.90
7576;DHT22;3829;50.798;4.358;2023-11-22T09:38:07;8.30;99.90
7576;DHT22;3829;50.798;4.358;2023-11-22T09:40:50;8.40;99.90
7576;DHT22;3829;50.798;4.358;2023-11-22T09:43:19;8.50;99.90
7576;DHT22;3829;50.798;4.358;2023-11-22T09:45:46;8.60;99.90
7576;DHT22;3829;50.798;4.358;2023-11-22T09:48:17;8.90;99.90
7576;DHT22;3829;50.798;4.358;2023-11-22T09:53:33;8.70;99.90
7576;DHT22;3829;50.798;4.358;2023-11-22T09:56:01;8.70;99.90
7576;DHT22;3829;50.798;4.358;2023-11-22T09:58:30;8.70;99.90
7576;DHT22;3829;50.798;4.358;2023-11-22T10:00:59;8.80;99.90
7576;DHT22;3829;50.798;4.358;2023-11-22T10:03:26;8.90;99.90
7576;DHT22;3829;50.798;4.358;2023-11-22T10:05:53;8.90;99.90
7576;DHT22;3829;50.798;4.358;2023-11-22T10:08:19;8.80;99.90
7576;DHT22;3829;50.798;4.358;2023-11-22T10:10:49;9.00;99.90
7576;DHT22;3829;50.798;4.358;2023-11-22T10:13:17;9.10;99.90
7576;DHT22;3829;50.798;4.358;2023-11-22T10:15:46;9.30;99.90
7576;DHT22;3829;50.798;4.358;2023-11-22T10:18:13;9.20;99.90
7576;DHT22;3829;50.798;4.358;2023-11-22T10:20:40;9.30;99.90
7576;DHT22;3829;50.798;4.358;2023-11-22T10:23:10;9.20;99.90
7576;DHT22;3829;50.798;4.358;2023-11-22T10:25:43;9.20;99.90
7576;DHT22;3829;50.798;4.358;2023-11-22T10:28:09;9.20;99.90
7576;DHT22;3829;50.798;4.358;2023-11-22T10:30:34;9.20;99.90
7576;DHT22;3829;50.798;4.358;2023-11-22T10:33:02;9.40;99.90
7576;DHT22;3829;50.798;4.358;2023-11-22T10:35:27;9.60;99.90
7576;DHT22;3829;50.798;4.358;2023-11-22T10:37:53;9.60;99.90
7576;DHT22;3829;50.798;4.358;2023-11-22T10:40:19;9.40;99.90
7576;DHT22;3829;50.798;4.358;2023-11-22T10:42:48;9.30;99.90
7576;DHT22;3829;50.798;4.358;2023-11-22T10:45:17;9.40;99.90
7576;DHT22;3829;50.798;4.358;2023-11-22T10:47:43;9.30;99.90
7576;DHT22;3829;50.798;4.358;2023-11-22T10:50:09;9.40;99.90
7576;DHT22;3829;50.798;4.358;2023-11-22T10:52:40;9.30;99.90
7576;DHT22;3829;50.798;4.358;2023-11-22T10:55:06;9.40;99.90
7576;DHT22;3829;50.798;4.358;2023-11-22T10:57:36;9.40;99.90
7576;DHT22;3829;50.798;4.358;2023-11-22T11:00:05;9.40;99.90
7576;DHT22;3829;50.798;4.358;2023-11-22T11:02:38;9.40;99.90
7576;DHT22;3829;50.798;4.358;2023-11-22T11:05:14;9.40;99.90
7576;DHT22;3829;50.798;4.358;2023-11-22T11:07:48;9.30;99.90
7576;DHT22;3829;50.798;4.358;2023-11-22T11:10:15;9.20;99.90
7576;DHT22;3829;50.798;4.358;2023-11-22T11:12:41;9.10;99.90
7576;DHT22;3829;50.798;4.358;2023-11-22T11:15:09;8.80;99.90
7576;DHT22;3829;50.798;4.358;2023-11-22T11:17:35;8.80;99.90
7576;DHT22;3829;50.798;4.358;2023-11-22T11:20:04;8.70;99.90
7576;DHT22;3829;50.798;4.358;2023-11-22T11:22:32;8.50;99.90
7576;DHT22;3829;50.798;4.358;2023-11-22T11:25:01;8.40;99.90
7576;DHT22;3829;50.798;4.358;2023-11-22T11:27:29;8.40;99.90
7576;DHT22;3829;50.798;4.358;2023-11-22T11:29:58;8.70;99.90
7576;DHT22;3829;50.798;4.358;2023-11-22T11:32:31;8.70;99.90
7576;DHT22;3829;50.798;4.358;2023-11-22T11:34:58;8.70;99.90
7576;DHT22;3829;50.798;4.358;2023-11-22T11:37:25;8.80;99.90
7576;DHT22;3829;50.798;4.358;2023-11-22T11:39:51;9.00;99.90
7576;DHT22;3829;50.798;4.358;2023-11-22T11:42:17;9.20;99.90
7576;DHT22;3829;50.798;4.358;2023-11-22T11:47:28;9.50;99.90
7576;DHT22;3829;50.798;4.358;2023-11-22T11:49:55;9.50;99.90
7576;DHT22;3829;50.798;4.358;2023-11-22T11:52:21;9.40;99.90
7576;DHT22;3829;50.798;4.358;2023-11-22T11:54:47;9.40;99.90
7576;DHT22;3829;50.798;4.358;2023-11-22T11:57:12;9.40;99.90
7576;DHT22;3829;50.798;4.358;2023-11-22T11:59:38;9.40;99.90
7576;DHT22;3829;50.798;4.358;2023-11-22T12:02:04;9.40;99.90
7576;DHT22;3829;50.798;4.358;2023-11-22T12:04:32;9.50;99.90
7576;DHT22;3829;50.798;4.358;2023-11-22T12:06:58;9.60;99.90
7576;DHT22;3829;50.798;4.358;2023-11-22T12:09:25;9.70;99.90
7576;DHT22;3829;50.798;4.358;2023-11-22T12:11:52;9.80;99.90
7576;DHT22;3829;50.798;4.358;2023-11-22T12:14:20;10.10;99.90
7576;DHT22;3829;50.798;4.358;2023-11-22T12:16:46;10.40;99.90
7576;DHT22;3829;50.798;4.358;2023-11-22T12:19:22;10.60;99.90
7576;DHT22;3829;50.798;4.358;2023-11-22T12:21:48;10.60;99.90
7576;DHT22;3829;50.798;4.358;2023-11-22T12:24:14;10.60;99.90
7576;DHT22;3829;50.798;4.358;2023-11-22T12:26:46;10.70;99.90
7576;DHT22;3829;50.798;4.358;2023-11-22T12:29:13;10.60;99.90
7576;DHT22;3829;50.798;4.358;2023-11-22T12:31:49;10.40;99.90
7576;DHT22;3829;50.798;4.358;2023-11-22T12:34:18;10.10;99.90
7576;DHT22;3829;50.798;4.358;2023-11-22T12:36:46;10.00;99.90
7576;DHT22;3829;50.798;4.358;2023-11-22T12:39:13;9.90;99.90
7576;DHT22;3829;50.798;4.358;2023-11-22T12:41:47;9.80;99.90
7576;DHT22;3829;50.798;4.358;2023-11-22T12:44:13;9.70;99.90
7576;DHT22;3829;50.798;4.358;2023-11-22T12:46:52;9.70;99.90
7576;DHT22;3829;50.798;4.358;2023-11-22T12:49:23;9.60;99.90
7576;DHT22;3829;50.798;4.358;2023-11-22T12:51:50;9.50;99.90
7576;DHT22;3829;50.798;4.358;2023-11-22T12:54:16;9.50;99.90
7576;DHT22;3829;50.798;4.358;2023-11-22T12:56:42;9.60;99.90
7576;DHT22;3829;50.798;4.358;2023-11-22T12:59:08;9.60;99.90
7576;DHT22;3829;50.798;4.358;2023-11-22T13:01:34;9.80;99.90
7576;DHT22;3829;50.798;4.358;2023-11-22T13:04:01;9.70;99.90
7576;DHT22;3829;50.798;4.358;2023-11-22T13:06:26;9.70;99.90
7576;DHT22;3829;50.798;4.358;2023-11-22T13:08:52;9.60;99.90
7576;DHT22;3829;50.798;4.358;2023-11-22T13:11:19;9.50;99.90
7576;DHT22;3829;50.798;4.358;2023-11-22T13:13:44;9.20;99.90
7576;DHT22;3829;50.798;4.358;2023-11-22T13:16:12;9.10;99.90
7576;DHT22;3829;50.798;4.358;2023-11-22T13:18:39;9.00;99.90
7576;DHT22;3829;50.798;4.358;2023-11-22T13:21:05;9.00;99.90
7576;DHT22;3829;50.798;4.358;2023-11-22T13:23:30;8.90;99.90
7576;DHT22;3829;50.798;4.358;2023-11-22T13:25:56;9.00;99.90
7576;DHT22;3829;50.798;4.358;2023-11-22T13:28:21;8.90;99.90
7576;DHT22;3829;50.798;4.358;2023-11-22T13:30:49;8.90;99.90
7576;DHT22;3829;50.798;4.358;2023-11-22T13:33:16;8.80;99.90
7576;DHT22;3829;50.798;4.358;2023-11-22T13:35:41;8.80;99.90
7576;DHT22;3829;50.798;4.358;2023-11-22T13:38:07;8.90;99.90
7576;DHT22;3829;50.798;4.358;2023-11-22T13:40:37;9.00;99.90
7576;DHT22;3829;50.798;4.358;2023-11-22T13:43:05;9.10;99.90
7576;DHT22;3829;50.798;4.358;2023-11-22T13:45:31;9.20;99.90
7576;DHT22;3829;50.798;4.358;2023-11-22T13:47:58;9.40;99.90
7576;DHT22;3829;50.798;4.358;2023-11-22T13:50:35;9.60;99.90
7576;DHT22;3829;50.798;4.358;2023-11-22T13:53:01;9.60;99.90
7576;DHT22;3829;50.798;4.358;2023-11-22T13:55:29;9.50;99.90
7576;DHT22;3829;50.798;4.358;2023-11-22T13:57:57;9.40;99.90
7576;DHT22;3829;50.798;4.358;2023-11-22T14:00:26;9.40;99.90
7576;DHT22;3829;50.798;4.358;2023-11-22T14:02:55;9.30;99.90
7576;DHT22;3829;50.798;4.358;2023-11-22T14:05:23;9.20;99.90
7576;DHT22;3829;50.798;4.358;2023-11-22T14:07:49;9.30;99.90
7576;DHT22;3829;50.798;4.358;2023-11-22T14:10:17;9.10;99.90
7576;DHT22;3829;50.798;4.358;2023-11-22T14:12:43;9.00;99.90
7576;DHT22;3829;50.798;4.358;2023-11-22T14:15:11;9.00;99.90
7576;DHT22;3829;50.798;4.358;2023-11-22T14:17:37;9.00;99.90
7576;DHT22;3829;50.798;4.358;2023-11-22T14:20:07;9.00;99.90
7576;DHT22;3829;50.798;4.358;2023-11-22T14:22:36;9.30;99.90
7576;DHT22;3829;50.798;4.358;2023-11-22T14:25:02;9.20;99.90
7576;DHT22;3829;50.798;4.358;2023-11-22T14:27:28;9.30;99.90
7576;DHT22;3829;50.798;4.358;2023-11-22T14:29:56;9.30;99.90
7576;DHT22;3829;50.798;4.358;2023-11-22T14:32:22;9.50;99.90
7576;DHT22;3829;50.798;4.358;2023-11-22T14:34:48;9.70;99.90
7576;DHT22;3829;50.798;4.358;2023-11-22T14:37:14;9.60;99.90
7576;DHT22;3829;50.798;4.358;2023-11-22T14:39:40;9.70;99.90
7576;DHT22;3829;50.798;4.358;2023-11-22T14:42:06;9.50;99.90
7576;DHT22;3829;50.798;4.358;2023-11-22T14:44:34;9.40;99.90
7576;DHT22;3829;50.798;4.358;2023-11-22T14:47:00;9.30;99.90
7576;DHT22;3829;50.798;4.358;2023-11-22T14:49:32;9.40;99.90
7576;DHT22;3829;50.798;4.358;2023-11-22T14:52:01;9.20;99.90
7576;DHT22;3829;50.798;4.358;2023-11-22T14:54:27;9.20;99.90
7576;DHT22;3829;50.798;4.358;2023-11-22T14:56:53;9.10;99.90
7576;DHT22;3829;50.798;4.358;2023-11-22T14:59:21;9.20;99.90
7576;DHT22;3829;50.798;4.358;2023-11-22T15:01:47;9.10;99.90
7576;DHT22;3829;50.798;4.358;2023-11-22T15:04:13;9.10;99.90
7576;DHT22;3829;50.798;4.358;2023-11-22T15:06:40;9.10;99.90
7576;DHT22;3829;50.798;4.358;2023-11-22T15:09:06;9.10;99.90
7576;DHT22;3829;50.798;4.358;2023-11-22T15:11:36;9.00;99.90
7576;DHT22;3829;50.798;4.358;2023-11-22T15:14:03;9.00;99.90
7576;DHT22;3829;50.798;4.358;2023-11-22T15:16:29;9.00;99.90
7576;DHT22;3829;50.798;4.358;2023-11-22T15:18:54;8.90;99.90
7576;DHT22;3829;50.798;4.358;2023-11-22T15:21:20;9.00;99.90
7576;DHT22;3829;50.798;4.358;2023-11-22T15:23:48;8.90;99.90
7576;DHT22;3829;50.798;4.358;2023-11-22T15:26:14;8.90;99.90
7576;DHT22;3829;50.798;4.358;2023-11-22T15:28:40;8.80;99.90
7576;DHT22;3829;50.798;4.358;2023-11-22T15:31:05;8.80;99.90
7576;DHT22;3829;50.798;4.358;2023-11-22T15:33:31;8.60;99.90
7576;DHT22;3829;50.798;4.358;2023-11-22T15:35:57;8.60;99.90
7576;DHT22;3829;50.798;4.358;2023-11-22T15:38:22;8.60;99.90
7576;DHT22;3829;50.798;4.358;2023-11-22T15:40:49;8.60;99.90
7576;DHT22;3829;50.798;4.358;2023-11-22T15:43:15;8.70;99.90
7576;DHT22;3829;50.798;4.358;2023-11-22T15:45:41;8.70;99.90
7576;DHT22;3829;50.798;4.358;2023-11-22T15:48:08;8.80;99.90
7576;DHT22;3829;50.798;4.358;2023-11-22T15:50:34;8.80;99.90
7576;DHT22;3829;50.798;4.358;2023-11-22T15:53:00;8.70;99.90
7576;DHT22;3829;50.798;4.358;2023-11-22T15:55:27;8.70;99.90
7576;DHT22;3829;50.798;4.358;2023-11-22T15:57:53;8.70;99.90
7576;DHT22;3829;50.798;4.358;2023-11-22T16:00:19;8.70;99.90
7576;DHT22;3829;50.798;4.358;2023-11-22T16:02:47;8.70;99.90
7576;DHT22;3829;50.798;4.358;2023-11-22T16:05:13;8.70;99.90
7576;DHT22;3829;50.798;4.358;2023-11-22T16:07:40;8.60;99.90
7576;DHT22;3829;50.798;4.358;2023-11-22T16:10:05;8.70;99.90
7576;DHT22;3829;50.798;4.358;2023-11-22T16:12:34;8.60;99.90
7576;DHT22;3829;50.798;4.358;2023-11-22T16:14:59;8.60;99.90
7576;DHT22;3829;50.798;4.358;2023-11-22T16:17:26;8.50;99.90
7576;DHT22;3829;50.798;4.358;2023-11-22T16:19:52;8.50;99.90